PWSweather.com
Personal Weather Stations
Station Observations
IROGLAN40
AalgaardNO 4330

AalgaardNO 4330

Lat: 58.773, Lon: 5.846

Elevation: 326

Station Type: Davis Vanatge Pro2

Latest ConditionsUpdated 10:00:02 PM GMT+01:01 Wednesday, Apr 24, 2019
Currently Today's Max Today's Min Today's Average
Temperature 54.4°F12.4°C 63.9°F17.7°C 52.3°F11.3°C 57.5°F14.2°C
Dew Point 45.9°F7.7°C 45.9°F7.7°C 28.2°F-2.1°C 37.1°F2.8°C
Winds 9.2 mph SE14.8 kmh SE 21.9 mph -35.2 kmh - - 9.2 mph 14.8 kmh
Wind Gusts 15.0 mph24.1 kmh 32.2 mph51.8 kmh - -
Humidity 73% 77% 33% 48%
Pressure 29.71 in1006.1 mb 29.90 in1012.5 mb 29.67 in1004.7 mb -
Precipitation - 0.12 in3.0 mm - -
Hour Temp Dew Point Humidity Winds Wind Gusts Pressure Precip Precip Rate Daily Precip Total
10:00 PM 54.4°F12.4°C 45.9°F7.7°C 73% 9.2 mph SE14.8 kmh SE 15.0 mph24.1 kmh 29.71 in1006.1 mb - 0.00 in0.0 mm 0.12 in3.0 mm
09:50 PM 54.9°F12.7°C 45.7°F7.6°C 71% 9.2 mph SE14.8 kmh SE 20.7 mph33.3 kmh 29.71 in1006.1 mb - 0.00 in0.0 mm 0.12 in3.0 mm
09:40 PM 55.1°F12.8°C 45.1°F7.3°C 69% 5.8 mph SE9.3 kmh SE 12.7 mph20.4 kmh 29.71 in1006.1 mb - 0.00 in0.0 mm 0.12 in3.0 mm
09:30 PM 55.2°F12.9°C 44.8°F7.1°C 68% 12.7 mph SE20.4 kmh SE 27.6 mph44.4 kmh 29.71 in1006.1 mb - 0.00 in0.0 mm 0.12 in3.0 mm
09:20 PM 54.9°F12.7°C 44.5°F6.9°C 68% 11.5 mph SE18.5 kmh SE 26.5 mph42.6 kmh 29.71 in1006.1 mb - 0.00 in0.0 mm 0.12 in3.0 mm
09:10 PM 54.8°F12.7°C 44.4°F6.9°C 68% 8.1 mph SE13.0 kmh SE 12.7 mph20.4 kmh 29.71 in1006.1 mb - 0.00 in0.0 mm 0.12 in3.0 mm
09:00 PM 54.6°F12.6°C 44.6°F7.0°C 69% 6.9 mph ESE11.1 kmh ESE 11.5 mph18.5 kmh 29.70 in1005.8 mb - 0.00 in0.0 mm 0.12 in3.0 mm
08:50 PM 54.5°F12.5°C 44.5°F6.9°C 69% 9.2 mph SE14.8 kmh SE 15.0 mph24.1 kmh 29.70 in1005.8 mb - 0.00 in0.0 mm 0.12 in3.0 mm
08:40 PM 54.2°F12.3°C 44.7°F7.1°C 70% 11.5 mph SE18.5 kmh SE 17.3 mph27.8 kmh 29.70 in1005.8 mb - 0.00 in0.0 mm 0.12 in3.0 mm
08:30 PM 54.0°F12.2°C 44.8°F7.1°C 71% 12.7 mph SE20.4 kmh SE 18.4 mph29.6 kmh 29.70 in1005.8 mb - 0.01 in0.3 mm 0.12 in3.0 mm
08:20 PM 53.5°F11.9°C 45.4°F7.4°C 74% 8.1 mph SE13.0 kmh SE 16.1 mph25.9 kmh 29.69 in1005.4 mb - 0.02 in0.5 mm 0.12 in3.0 mm
08:10 PM 52.8°F11.6°C 45.5°F7.5°C 76% 15.0 mph SE24.1 kmh SE 23.0 mph37.0 kmh 29.69 in1005.4 mb - 0.02 in0.5 mm 0.12 in3.0 mm
08:00 PM 52.6°F11.4°C 45.2°F7.3°C 76% 13.8 mph SE22.2 kmh SE 25.3 mph40.7 kmh 29.69 in1005.4 mb - 0.03 in0.8 mm 0.12 in3.0 mm
07:50 PM 52.3°F11.3°C 45.3°F7.4°C 77% 10.4 mph ESE16.7 kmh ESE 25.3 mph40.7 kmh 29.69 in1005.4 mb - 0.05 in1.3 mm 0.12 in3.0 mm
07:40 PM 52.4°F11.3°C 45.0°F7.2°C 76% 11.5 mph SE18.5 kmh SE 16.1 mph25.9 kmh 29.70 in1005.8 mb - 0.06 in1.5 mm 0.12 in3.0 mm
07:30 PM 52.4°F11.3°C 45.1°F7.3°C 76% 11.5 mph SE18.5 kmh SE 12.7 mph20.4 kmh 29.70 in1005.8 mb - 0.07 in1.8 mm 0.11 in2.8 mm
07:20 PM 52.5°F11.4°C 44.8°F7.1°C 75% 12.7 mph SE20.4 kmh SE 21.9 mph35.2 kmh 29.70 in1005.8 mb - 0.08 in2.0 mm 0.10 in2.5 mm
07:10 PM 52.6°F11.4°C 44.9°F7.2°C 75% 15.0 mph SE24.1 kmh SE 24.2 mph38.9 kmh 29.69 in1005.4 mb - 0.08 in2.0 mm 0.10 in2.5 mm
07:00 PM 52.8°F11.6°C 44.7°F7.1°C 74% 12.7 mph ESE20.4 kmh ESE 25.3 mph40.7 kmh 29.70 in1005.8 mb - 0.07 in1.8 mm 0.09 in2.3 mm
06:50 PM 53.0°F11.7°C 44.6°F7.0°C 73% 11.5 mph SE18.5 kmh SE 29.9 mph48.1 kmh 29.70 in1005.8 mb - 0.06 in1.5 mm 0.08 in2.0 mm
06:40 PM 53.4°F11.9°C 44.2°F6.8°C 71% 13.8 mph SE22.2 kmh SE 23.0 mph37.0 kmh 29.70 in1005.8 mb - 0.04 in1.0 mm 0.06 in1.5 mm
06:30 PM 54.3°F12.4°C 43.9°F6.6°C 68% 15.0 mph SE24.1 kmh SE 16.1 mph25.9 kmh 29.69 in1005.4 mb - 0.03 in0.8 mm 0.04 in1.0 mm
06:20 PM 55.7°F13.2°C 42.9°F6.1°C 62% 12.7 mph SE20.4 kmh SE 15.0 mph24.1 kmh 29.68 in1005.1 mb - 0.02 in0.5 mm 0.02 in0.5 mm
06:10 PM 55.7°F13.2°C 42.0°F5.6°C 60% 15.0 mph SE24.1 kmh SE 26.5 mph42.6 kmh 29.68 in1005.1 mb - 0.02 in0.5 mm 0.02 in0.5 mm
06:00 PM 56.3°F13.5°C 41.7°F5.4°C 58% 11.5 mph SE18.5 kmh SE 15.0 mph24.1 kmh 29.68 in1005.1 mb - 0.02 in0.5 mm 0.02 in0.5 mm
05:50 PM 55.9°F13.3°C 41.8°F5.4°C 59% 21.9 mph SE35.2 kmh SE 29.9 mph48.1 kmh 29.67 in1004.7 mb - 0.02 in0.5 mm 0.02 in0.5 mm
05:40 PM 56.1°F13.4°C 42.9°F6.1°C 61% 11.5 mph SE18.5 kmh SE 21.9 mph35.2 kmh 29.67 in1004.7 mb - 0.02 in0.5 mm 0.02 in0.5 mm
05:30 PM 57.7°F14.3°C 42.5°F5.8°C 57% 19.6 mph SE31.5 kmh SE 29.9 mph48.1 kmh 29.68 in1005.1 mb - 0.01 in0.3 mm 0.01 in0.3 mm
05:20 PM 60.1°F15.6°C 40.3°F4.6°C 48% 12.7 mph SE20.4 kmh SE 18.4 mph29.6 kmh 29.68 in1005.1 mb - 0.00 in0.0 mm 0.00 in0.0 mm
05:10 PM 58.8°F14.9°C 40.2°F4.6°C 50% 10.4 mph SE16.7 kmh SE 17.3 mph27.8 kmh 29.68 in1005.1 mb - 0.00 in0.0 mm 0.00 in0.0 mm
05:00 PM 58.7°F14.8°C 39.6°F4.2°C 49% 13.8 mph ESE22.2 kmh ESE 23.0 mph37.0 kmh 29.68 in1005.1 mb - 0.00 in0.0 mm 0.00 in0.0 mm
04:50 PM 58.9°F14.9°C 40.3°F4.6°C 50% 15.0 mph ESE24.1 kmh ESE 26.5 mph42.6 kmh 29.68 in1005.1 mb - 0.00 in0.0 mm 0.00 in0.0 mm
04:40 PM 59.7°F15.4°C 40.5°F4.7°C 49% 10.4 mph SE16.7 kmh SE 18.4 mph29.6 kmh 29.68 in1005.1 mb - 0.00 in0.0 mm 0.00 in0.0 mm
04:30 PM 59.8°F15.4°C 40.0°F4.4°C 48% 11.5 mph SE18.5 kmh SE 21.9 mph35.2 kmh 29.68 in1005.1 mb - 0.00 in0.0 mm 0.00 in0.0 mm
04:20 PM 60.6°F15.9°C 40.2°F4.6°C 47% 12.7 mph SE20.4 kmh SE 16.1 mph25.9 kmh 29.69 in1005.4 mb - 0.00 in0.0 mm 0.00 in0.0 mm
04:10 PM 60.0°F15.6°C 40.2°F4.6°C 48% 15.0 mph SE24.1 kmh SE 25.3 mph40.7 kmh 29.69 in1005.4 mb - 0.00 in0.0 mm 0.00 in0.0 mm
04:00 PM 60.4°F15.8°C 40.1°F4.5°C 47% 11.5 mph SE18.5 kmh SE 21.9 mph35.2 kmh 29.70 in1005.8 mb - 0.00 in0.0 mm 0.00 in0.0 mm
03:50 PM 61.8°F16.6°C 40.8°F4.9°C 46% 18.4 mph ESE29.6 kmh ESE 28.8 mph46.3 kmh 29.70 in1005.8 mb - 0.00 in0.0 mm 0.00 in0.0 mm
03:40 PM 62.3°F16.8°C 41.2°F5.1°C 46% 13.8 mph SE22.2 kmh SE 21.9 mph35.2 kmh 29.69 in1005.4 mb - 0.00 in0.0 mm 0.00 in0.0 mm
03:30 PM 61.5°F16.4°C 41.1°F5.1°C 47% 13.8 mph SE22.2 kmh SE 18.4 mph29.6 kmh 29.70 in1005.8 mb - 0.00 in0.0 mm 0.00 in0.0 mm
03:20 PM 61.2°F16.2°C 40.2°F4.6°C 46% 16.1 mph SE25.9 kmh SE 26.5 mph42.6 kmh 29.70 in1005.8 mb - 0.00 in0.0 mm 0.00 in0.0 mm
03:10 PM 61.1°F16.2°C 40.7°F4.8°C 47% 12.7 mph ESE20.4 kmh ESE 19.6 mph31.5 kmh 29.70 in1005.8 mb - 0.00 in0.0 mm 0.00 in0.0 mm
03:00 PM 61.1°F16.2°C 40.2°F4.6°C 46% 12.7 mph SE20.4 kmh SE 21.9 mph35.2 kmh 29.71 in1006.1 mb - 0.00 in0.0 mm 0.00 in0.0 mm
02:50 PM 62.0°F16.7°C 40.4°F4.7°C 45% 13.8 mph SE22.2 kmh SE 24.2 mph38.9 kmh 29.71 in1006.1 mb - 0.00 in0.0 mm 0.00 in0.0 mm
02:40 PM 62.1°F16.7°C 41.1°F5.1°C 46% 12.7 mph ESE20.4 kmh ESE 25.3 mph40.7 kmh 29.72 in1006.4 mb - 0.00 in0.0 mm 0.00 in0.0 mm
02:30 PM 63.2°F17.3°C 40.9°F4.9°C 44% 12.7 mph ESE20.4 kmh ESE 16.1 mph25.9 kmh 29.72 in1006.4 mb - 0.00 in0.0 mm 0.00 in0.0 mm
02:20 PM 63.1°F17.3°C 40.8°F4.9°C 44% 13.8 mph SE22.2 kmh SE 29.9 mph48.1 kmh 29.71 in1006.1 mb - 0.00 in0.0 mm 0.00 in0.0 mm
02:10 PM 62.9°F17.2°C 40.7°F4.8°C 44% 19.6 mph SE31.5 kmh SE 28.8 mph46.3 kmh 29.70 in1005.8 mb - 0.00 in0.0 mm 0.00 in0.0 mm
02:00 PM 63.0°F17.2°C 40.1°F4.5°C 43% 17.3 mph SE27.8 kmh SE 28.8 mph46.3 kmh 29.71 in1006.1 mb - 0.00 in0.0 mm 0.00 in0.0 mm
01:50 PM 63.0°F17.2°C 39.5°F4.2°C 42% 15.0 mph SE24.1 kmh SE 23.0 mph37.0 kmh 29.71 in1006.1 mb - 0.00 in0.0 mm 0.00 in0.0 mm
01:40 PM 63.6°F17.6°C 40.1°F4.5°C 42% 13.8 mph SE22.2 kmh SE 24.2 mph38.9 kmh 29.71 in1006.1 mb - 0.00 in0.0 mm 0.00 in0.0 mm
01:30 PM 63.8°F17.7°C 39.6°F4.2°C 41% 12.7 mph SE20.4 kmh SE 18.4 mph29.6 kmh 29.71 in1006.1 mb - 0.00 in0.0 mm 0.00 in0.0 mm
01:20 PM 63.5°F17.5°C 40.0°F4.4°C 42% 10.4 mph SE16.7 kmh SE 19.6 mph31.5 kmh 29.72 in1006.4 mb - 0.00 in0.0 mm 0.00 in0.0 mm
01:10 PM 63.4°F17.4°C 38.6°F3.7°C 40% 15.0 mph SE24.1 kmh SE 24.2 mph38.9 kmh 29.72 in1006.4 mb - 0.00 in0.0 mm 0.00 in0.0 mm
01:00 PM 63.3°F17.4°C 39.2°F4.0°C 41% 9.2 mph SE14.8 kmh SE 13.8 mph22.2 kmh 29.72 in1006.4 mb - 0.00 in0.0 mm 0.00 in0.0 mm
12:50 PM 63.4°F17.4°C 38.6°F3.7°C 40% 12.7 mph SE20.4 kmh SE 25.3 mph40.7 kmh 29.73 in1006.8 mb - 0.00 in0.0 mm 0.00 in0.0 mm
12:40 PM 63.3°F17.4°C 38.6°F3.7°C 40% 11.5 mph SE18.5 kmh SE 20.7 mph33.3 kmh 29.73 in1006.8 mb - 0.00 in0.0 mm 0.00 in0.0 mm
12:30 PM 63.1°F17.3°C 39.0°F3.9°C 41% 10.4 mph SE16.7 kmh SE 25.3 mph40.7 kmh 29.73 in1006.8 mb - 0.00 in0.0 mm 0.00 in0.0 mm
12:20 PM 63.9°F17.7°C 39.1°F3.9°C 40% 12.7 mph ESE20.4 kmh ESE 17.3 mph27.8 kmh 29.73 in1006.8 mb - 0.00 in0.0 mm 0.00 in0.0 mm
12:10 PM 63.4°F17.4°C 39.3°F4.1°C 41% 12.7 mph SE20.4 kmh SE 18.4 mph29.6 kmh 29.73 in1006.8 mb - 0.00 in0.0 mm 0.00 in0.0 mm
12:00 PM 63.0°F17.2°C 40.1°F4.5°C 43% 11.5 mph SE18.5 kmh SE 11.5 mph18.5 kmh 29.74 in1007.1 mb - 0.00 in0.0 mm 0.00 in0.0 mm
11:50 AM 63.2°F17.3°C 40.3°F4.6°C 43% 11.5 mph SE18.5 kmh SE 15.0 mph24.1 kmh 29.75 in1007.5 mb - 0.00 in0.0 mm 0.00 in0.0 mm
11:40 AM 63.5°F17.5°C 40.0°F4.4°C 42% 16.1 mph SE25.9 kmh SE 32.2 mph51.8 kmh 29.75 in1007.5 mb - 0.00 in0.0 mm 0.00 in0.0 mm
11:30 AM 62.9°F17.2°C 40.1°F4.5°C 43% 10.4 mph ESE16.7 kmh ESE 17.3 mph27.8 kmh 29.75 in1007.5 mb - 0.00 in0.0 mm 0.00 in0.0 mm
11:20 AM 63.1°F17.3°C 39.0°F3.9°C 41% 16.1 mph ESE25.9 kmh ESE 23.0 mph37.0 kmh 29.75 in1007.5 mb - 0.00 in0.0 mm 0.00 in0.0 mm
11:10 AM 63.5°F17.5°C 40.0°F4.4°C 42% 9.2 mph SE14.8 kmh SE 16.1 mph25.9 kmh 29.75 in1007.5 mb - 0.00 in0.0 mm 0.00 in0.0 mm
11:00 AM 62.5°F16.9°C 39.7°F4.3°C 43% 11.5 mph SE18.5 kmh SE 19.6 mph31.5 kmh 29.75 in1007.5 mb - 0.00 in0.0 mm 0.00 in0.0 mm
10:50 AM 62.3°F16.8°C 40.7°F4.8°C 45% 3.5 mph SE5.6 kmh SE 9.2 mph14.8 kmh 29.75 in1007.5 mb - 0.00 in0.0 mm 0.00 in0.0 mm
10:40 AM 61.7°F16.5°C 39.6°F4.2°C 44% 10.4 mph SE16.7 kmh SE 13.8 mph22.2 kmh 29.75 in1007.5 mb - 0.00 in0.0 mm 0.00 in0.0 mm
10:30 AM 60.9°F16.1°C 40.0°F4.4°C 46% 9.2 mph SE14.8 kmh SE 13.8 mph22.2 kmh 29.76 in1007.8 mb - 0.00 in0.0 mm 0.00 in0.0 mm
10:20 AM 59.7°F15.4°C 39.4°F4.1°C 47% 8.1 mph SE13.0 kmh SE 12.7 mph20.4 kmh 29.76 in1007.8 mb - 0.00 in0.0 mm 0.00 in0.0 mm
10:10 AM 59.0°F15.0°C 39.3°F4.1°C 48% 9.2 mph ESE14.8 kmh ESE 11.5 mph18.5 kmh 29.77 in1008.1 mb - 0.00 in0.0 mm 0.00 in0.0 mm
10:00 AM 58.2°F14.6°C 39.1°F3.9°C 49% 12.7 mph SE20.4 kmh SE 16.1 mph25.9 kmh 29.77 in1008.1 mb - 0.00 in0.0 mm 0.00 in0.0 mm
09:50 AM 57.8°F14.3°C 38.8°F3.8°C 49% 11.5 mph SE18.5 kmh SE 20.7 mph33.3 kmh 29.78 in1008.5 mb - 0.00 in0.0 mm 0.00 in0.0 mm
09:40 AM 58.3°F14.6°C 39.2°F4.0°C 49% 6.9 mph SE11.1 kmh SE 11.5 mph18.5 kmh 29.79 in1008.8 mb - 0.00 in0.0 mm 0.00 in0.0 mm
09:30 AM 57.9°F14.4°C 38.8°F3.8°C 49% 12.7 mph SE20.4 kmh SE 32.2 mph51.8 kmh 29.79 in1008.8 mb - 0.00 in0.0 mm 0.00 in0.0 mm
09:20 AM 57.6°F14.2°C 38.5°F3.6°C 49% 12.7 mph SE20.4 kmh SE 21.9 mph35.2 kmh 29.80 in1009.1 mb - 0.00 in0.0 mm 0.00 in0.0 mm
09:10 AM 57.2°F14.0°C 37.7°F3.2°C 48% 11.5 mph ESE18.5 kmh ESE 23.0 mph37.0 kmh 29.80 in1009.1 mb - 0.00 in0.0 mm 0.00 in0.0 mm
09:00 AM 57.1°F13.9°C 37.0°F2.8°C 47% 9.2 mph SE14.8 kmh SE 13.8 mph22.2 kmh 29.79 in1008.8 mb - 0.00 in0.0 mm 0.00 in0.0 mm
08:50 AM 57.5°F14.2°C 36.9°F2.7°C 46% 12.7 mph SE20.4 kmh SE 19.6 mph31.5 kmh 29.79 in1008.8 mb - 0.00 in0.0 mm 0.00 in0.0 mm
08:40 AM 56.8°F13.8°C 35.7°F2.1°C 45% 6.9 mph SE11.1 kmh SE 12.7 mph20.4 kmh 29.79 in1008.8 mb - 0.00 in0.0 mm 0.00 in0.0 mm
08:30 AM 55.9°F13.3°C 35.4°F1.9°C 46% 6.9 mph E11.1 kmh E 10.4 mph16.7 kmh 29.79 in1008.8 mb - 0.00 in0.0 mm 0.00 in0.0 mm
08:20 AM 55.5°F13.1°C 34.5°F1.4°C 45% 4.6 mph SE7.4 kmh SE 4.6 mph7.4 kmh 29.79 in1008.8 mb - 0.00 in0.0 mm 0.00 in0.0 mm
08:10 AM 55.3°F12.9°C 33.7°F0.9°C 44% 3.5 mph E5.6 kmh E 6.9 mph11.1 kmh 29.80 in1009.1 mb - 0.00 in0.0 mm 0.00 in0.0 mm
08:00 AM 55.0°F12.8°C 32.9°F0.5°C 43% 10.4 mph SE16.7 kmh SE 13.8 mph22.2 kmh 29.80 in1009.1 mb - 0.00 in0.0 mm 0.00 in0.0 mm
07:50 AM 54.8°F12.7°C 32.7°F0.4°C 43% 4.6 mph SE7.4 kmh SE 10.4 mph16.7 kmh 29.80 in1009.1 mb - 0.00 in0.0 mm 0.00 in0.0 mm
07:40 AM 54.9°F12.7°C 32.2°F0.1°C 42% 9.2 mph SE14.8 kmh SE 21.9 mph35.2 kmh 29.81 in1009.5 mb - 0.00 in0.0 mm 0.00 in0.0 mm
07:30 AM 55.0°F12.8°C 32.3°F0.2°C 42% 3.5 mph SE5.6 kmh SE 10.4 mph16.7 kmh 29.81 in1009.5 mb - 0.00 in0.0 mm 0.00 in0.0 mm
07:20 AM 55.0°F12.8°C 32.9°F0.5°C 43% 5.8 mph SE9.3 kmh SE 11.5 mph18.5 kmh 29.81 in1009.5 mb - 0.00 in0.0 mm 0.00 in0.0 mm
07:10 AM 54.8°F12.7°C 32.1°F0.1°C 42% 10.4 mph SE16.7 kmh SE 21.9 mph35.2 kmh 29.81 in1009.5 mb - 0.00 in0.0 mm 0.00 in0.0 mm
07:00 AM 54.8°F12.7°C 32.1°F0.1°C 42% 5.8 mph SE9.3 kmh SE 15.0 mph24.1 kmh 29.81 in1009.5 mb - 0.00 in0.0 mm 0.00 in0.0 mm
06:50 AM 54.7°F12.6°C 32.0°F0.0°C 42% 10.4 mph ESE16.7 kmh ESE 17.3 mph27.8 kmh 29.81 in1009.5 mb - 0.00 in0.0 mm 0.00 in0.0 mm
06:40 AM 54.7°F12.6°C 32.0°F0.0°C 42% 3.5 mph SE5.6 kmh SE 11.5 mph18.5 kmh 29.81 in1009.5 mb - 0.00 in0.0 mm 0.00 in0.0 mm
06:30 AM 54.8°F12.7°C 32.1°F0.1°C 42% 1.2 mph SE1.9 kmh SE 4.6 mph7.4 kmh 29.81 in1009.5 mb - 0.00 in0.0 mm 0.00 in0.0 mm
06:20 AM 54.9°F12.7°C 31.6°F-0.2°C 41% 4.6 mph SE7.4 kmh SE 9.2 mph14.8 kmh 29.80 in1009.1 mb - 0.00 in0.0 mm 0.00 in0.0 mm
06:10 AM 54.7°F12.6°C 31.4°F-0.3°C 41% 8.1 mph SE13.0 kmh SE 16.1 mph25.9 kmh 29.80 in1009.1 mb - 0.00 in0.0 mm 0.00 in0.0 mm
06:00 AM 54.4°F12.4°C 31.8°F-0.1°C 42% 4.6 mph SE7.4 kmh SE 4.6 mph7.4 kmh 29.80 in1009.1 mb - 0.00 in0.0 mm 0.00 in0.0 mm
05:50 AM 54.2°F12.3°C 31.6°F-0.2°C 42% 5.8 mph SE9.3 kmh SE 11.5 mph18.5 kmh 29.81 in1009.5 mb - 0.00 in0.0 mm 0.00 in0.0 mm
05:40 AM 54.2°F12.3°C 31.6°F-0.2°C 42% 4.6 mph SE7.4 kmh SE 11.5 mph18.5 kmh 29.82 in1009.8 mb - 0.00 in0.0 mm 0.00 in0.0 mm
05:30 AM 54.0°F12.2°C 30.8°F-0.7°C 41% 4.6 mph SE7.4 kmh SE 9.2 mph14.8 kmh 29.82 in1009.8 mb - 0.00 in0.0 mm 0.00 in0.0 mm
05:20 AM 54.1°F12.3°C 30.9°F-0.6°C 41% Calm Calm -- 29.82 in1009.8 mb - 0.00 in0.0 mm 0.00 in0.0 mm
05:10 AM 54.3°F12.4°C 30.5°F-0.8°C 40% 4.6 mph SSE7.4 kmh SSE 11.5 mph18.5 kmh 29.82 in1009.8 mb - 0.00 in0.0 mm 0.00 in0.0 mm
05:00 AM 54.3°F12.4°C 30.5°F-0.8°C 40% 4.6 mph SE7.4 kmh SE 10.4 mph16.7 kmh 29.82 in1009.8 mb - 0.00 in0.0 mm 0.00 in0.0 mm
04:50 AM 54.0°F12.2°C 30.8°F-0.7°C 41% 1.2 mph SE1.9 kmh SE 3.5 mph5.6 kmh 29.83 in1010.2 mb - 0.00 in0.0 mm 0.00 in0.0 mm
04:40 AM 54.1°F12.3°C 30.9°F-0.6°C 41% Calm Calm -- 29.83 in1010.2 mb - 0.00 in0.0 mm 0.00 in0.0 mm
04:30 AM 54.6°F12.6°C 30.1°F-1.1°C 39% Calm Calm 5.8 mph9.3 kmh 29.84 in1010.5 mb - 0.00 in0.0 mm 0.00 in0.0 mm
04:20 AM 54.9°F12.7°C 30.4°F-0.9°C 39% 1.2 mph ESE1.9 kmh ESE 4.6 mph7.4 kmh 29.84 in1010.5 mb - 0.00 in0.0 mm 0.00 in0.0 mm
04:10 AM 55.0°F12.8°C 30.5°F-0.8°C 39% 1.2 mph SE1.9 kmh SE 2.3 mph3.7 kmh 29.84 in1010.5 mb - 0.00 in0.0 mm 0.00 in0.0 mm
04:00 AM 55.3°F12.9°C 30.1°F-1.1°C 38% 3.5 mph SE5.6 kmh SE 6.9 mph11.1 kmh 29.84 in1010.5 mb - 0.00 in0.0 mm 0.00 in0.0 mm
03:50 AM 55.3°F12.9°C 30.1°F-1.1°C 38% 2.3 mph SSE3.7 kmh SSE 4.6 mph7.4 kmh 29.84 in1010.5 mb - 0.00 in0.0 mm 0.00 in0.0 mm
03:40 AM 55.4°F13.0°C 30.2°F-1.0°C 38% 4.6 mph SE7.4 kmh SE 9.2 mph14.8 kmh 29.85 in1010.8 mb - 0.00 in0.0 mm 0.00 in0.0 mm
03:30 AM 55.6°F13.1°C 30.4°F-0.9°C 38% 2.3 mph SE3.7 kmh SE 8.1 mph13.0 kmh 29.85 in1010.8 mb - 0.00 in0.0 mm 0.00 in0.0 mm
03:20 AM 55.9°F13.3°C 30.0°F-1.1°C 37% 5.8 mph SE9.3 kmh SE 13.8 mph22.2 kmh 29.85 in1010.8 mb - 0.00 in0.0 mm 0.00 in0.0 mm
03:10 AM 55.7°F13.2°C 29.8°F-1.2°C 37% 5.8 mph SE9.3 kmh SE 12.7 mph20.4 kmh 29.85 in1010.8 mb - 0.00 in0.0 mm 0.00 in0.0 mm
03:00 AM 55.8°F13.2°C 29.9°F-1.2°C 37% 2.3 mph SE3.7 kmh SE 6.9 mph11.1 kmh 29.86 in1011.2 mb - 0.00 in0.0 mm 0.00 in0.0 mm
02:50 AM 56.1°F13.4°C 29.5°F-1.4°C 36% 3.5 mph SE5.6 kmh SE 8.1 mph13.0 kmh 29.86 in1011.2 mb - 0.00 in0.0 mm 0.00 in0.0 mm
02:40 AM 56.1°F13.4°C 29.5°F-1.4°C 36% 6.9 mph SE11.1 kmh SE 11.5 mph18.5 kmh 29.86 in1011.2 mb - 0.00 in0.0 mm 0.00 in0.0 mm
02:30 AM 56.1°F13.4°C 29.5°F-1.4°C 36% 1.2 mph SE1.9 kmh SE 8.1 mph13.0 kmh 29.87 in1011.5 mb - 0.00 in0.0 mm 0.00 in0.0 mm
02:20 AM 56.1°F13.4°C 29.5°F-1.4°C 36% 5.8 mph SE9.3 kmh SE 11.5 mph18.5 kmh 29.87 in1011.5 mb - 0.00 in0.0 mm 0.00 in0.0 mm
02:10 AM 56.1°F13.4°C 29.5°F-1.4°C 36% 3.5 mph SE5.6 kmh SE 10.4 mph16.7 kmh 29.87 in1011.5 mb - 0.00 in0.0 mm 0.00 in0.0 mm
02:00 AM 56.5°F13.6°C 29.1°F-1.6°C 35% 1.2 mph ESE1.9 kmh ESE 4.6 mph7.4 kmh 29.87 in1011.5 mb - 0.00 in0.0 mm 0.00 in0.0 mm
01:50 AM 56.6°F13.7°C 29.3°F-1.5°C 35% 3.5 mph SE5.6 kmh SE 4.6 mph7.4 kmh 29.87 in1011.5 mb - 0.00 in0.0 mm 0.00 in0.0 mm
01:40 AM 57.0°F13.9°C 28.9°F-1.7°C 34% 3.5 mph SE5.6 kmh SE 9.2 mph14.8 kmh 29.87 in1011.5 mb - 0.00 in0.0 mm 0.00 in0.0 mm
01:30 AM 57.0°F13.9°C 28.9°F-1.7°C 34% 6.9 mph SE11.1 kmh SE 6.9 mph11.1 kmh 29.88 in1011.9 mb - 0.00 in0.0 mm 0.00 in0.0 mm
01:20 AM 57.0°F13.9°C 28.2°F-2.1°C 33% Calm Calm 4.6 mph7.4 kmh 29.88 in1011.9 mb - 0.00 in0.0 mm 0.00 in0.0 mm
01:10 AM 57.1°F13.9°C 28.2°F-2.1°C 33% 5.8 mph ESE9.3 kmh ESE 8.1 mph13.0 kmh 29.88 in1011.9 mb - 0.00 in0.0 mm 0.00 in0.0 mm
01:00 AM 57.2°F14.0°C 28.3°F-2.1°C 33% 8.1 mph SE13.0 kmh SE 12.7 mph20.4 kmh 29.88 in1011.9 mb - 0.00 in0.0 mm 0.00 in0.0 mm
12:50 AM 57.5°F14.2°C 28.6°F-1.9°C 33% 6.9 mph ESE11.1 kmh ESE 11.5 mph18.5 kmh 29.89 in1012.2 mb - 0.00 in0.0 mm 0.00 in0.0 mm
12:40 AM 57.5°F14.2°C 28.6°F-1.9°C 33% 6.9 mph SE11.1 kmh SE 11.5 mph18.5 kmh 29.89 in1012.2 mb - 0.00 in0.0 mm 0.00 in0.0 mm
12:30 AM 57.8°F14.3°C 28.8°F-1.8°C 33% 4.6 mph SE7.4 kmh SE 11.5 mph18.5 kmh 29.89 in1012.2 mb - 0.00 in0.0 mm 0.00 in0.0 mm
12:20 AM 57.7°F14.3°C 28.8°F-1.8°C 33% 6.9 mph ESE11.1 kmh ESE 12.7 mph20.4 kmh 29.90 in1012.5 mb - 0.00 in0.0 mm 0.00 in0.0 mm
12:10 AM 57.9°F14.4°C 28.9°F-1.7°C 33% 4.6 mph SE7.4 kmh SE 9.2 mph14.8 kmh 29.90 in1012.5 mb - 0.00 in0.0 mm 0.00 in0.0 mm
12:00 AM 58.0°F14.4°C 29.8°F-1.2°C 34% 3.5 mph SE5.6 kmh SE 9.2 mph14.8 kmh 29.90 in1012.5 mb - 0.00 in0.0 mm 0.00 in0.0 mm